Buda, Illinois
Current Conditions -  °F | °C
As of 4:55 AM on Friday 31 Oct 2014 (Local Time) from KC75 Reporting Station
Overcast Overcast  
Wind Chill: 36°   Ceiling: 3700
Heat Index: 43°   Visibility: 10mi
Dew Point: 32°   Wind: 12mph
Humidity: 66%   Direction: 320°NW
Pressure: 30.1"   Gusts: 16mph
Location:  41.33°N, 89.68°W
Report Text: KC75 310955Z AUTO 32010G14KT 10SM OVC037 06/00 A3010 RMK AO2 T00590000
Loading
Personal Weather Stations






























Interactive Weather Map
Tropical Storm Tracking
New forecast layout! Learn more

10-Day Weather Forecast

Advertisements
Track Severe Weather on mobile